Time;durP1;ratioP1;P1;durP2;ratioP2;P2;SDS_P1;SDS_P2;PMS_P1;PMS_P2;Temp;Humidity;BMP_temperature;BMP_pressure;BME280_temperature;BME280_humidity;BME280_pressure;Samples;Min_cycle;Max_cycle;Signal;HPM_P1;HPM_P2
2022/10/14 04:01:48;;;;;;;20.03;17.37;;;13.80;99.90;;;;;;5333207;23;20557;-63
2022/10/14 04:04:15;;;;;;;20.07;18.00;;;13.80;99.90;;;;;;4974716;28;20454;-62
2022/10/14 04:06:41;;;;;;;18.53;16.60;;;13.70;99.90;;;;;;4978424;28;20446;-63
2022/10/14 04:09:08;;;;;;;25.40;18.40;;;13.80;99.90;;;;;;4980816;28;20510;-62
2022/10/14 04:11:35;;;;;;;20.43;15.90;;;13.70;99.90;;;;;;4977749;28;20521;-63
2022/10/14 04:14:01;;;;;;;22.17;16.20;;;13.70;99.90;;;;;;4974784;28;20509;-63
2022/10/14 04:16:28;;;;;;;18.13;16.20;;;13.60;99.90;;;;;;4974652;28;20454;-63
2022/10/14 04:18:57;;;;;;;19.80;17.90;;;13.60;99.90;;;;;;4974705;28;20845;-63
2022/10/14 04:21:24;;;;;;;20.00;16.63;;;13.60;99.90;;;;;;4974913;28;20475;-63
2022/10/14 04:23:51;;;;;;;24.73;16.00;;;13.60;99.90;;;;;;4974629;28;20454;-62
2022/10/14 04:26:18;;;;;;;19.33;17.07;;;13.70;99.90;;;;;;4974736;28;20459;-62
2022/10/14 04:28:44;;;;;;;22.73;16.40;;;13.60;99.90;;;;;;4974539;28;20451;-62
2022/10/14 04:31:11;;;;;;;19.80;17.53;;;13.70;99.90;;;;;;4974785;28;20525;-63
2022/10/14 04:33:38;;;;;;;21.57;17.30;;;13.70;99.90;;;;;;4975787;28;20458;-62
2022/10/14 04:36:08;;;;;;;24.40;18.40;;;13.60;99.90;;;;;;4978048;28;20592;-62
2022/10/14 04:38:34;;;;;;;20.27;18.27;;;13.60;99.90;;;;;;4978033;28;20502;-62
2022/10/14 04:41:01;;;;;;;20.40;18.30;;;13.60;99.90;;;;;;4978081;28;20475;-63
2022/10/14 04:43:28;;;;;;;20.87;18.03;;;13.60;99.90;;;;;;4978037;28;20505;-63
2022/10/14 04:45:55;;;;;;;24.10;19.87;;;13.60;99.90;;;;;;4978095;28;20459;-63
2022/10/14 04:48:21;;;;;;;29.50;19.80;;;13.60;99.90;;;;;;4977899;28;20505;-62
2022/10/14 04:50:50;;;;;;;23.30;20.43;;;13.60;99.90;;;;;;4977731;28;20482;-63
2022/10/14 04:53:19;;;;;;;26.53;21.13;;;13.60;99.90;;;;;;4977792;28;20461;-63
2022/10/14 04:55:48;;;;;;;24.07;21.50;;;13.50;99.90;;;;;;4978038;28;20843;-63
2022/10/14 04:58:15;;;;;;;25.80;21.63;;;13.50;99.90;;;;;;4977241;28;21009;-62
2022/10/14 05:00:42;;;;;;;26.83;22.43;;;13.40;99.90;;;;;;4977479;28;20993;-62
2022/10/14 05:03:09;;;;;;;25.90;22.37;;;13.40;99.90;;;;;;4977713;28;20465;-63
2022/10/14 05:05:36;;;;;;;27.50;22.40;;;13.40;99.90;;;;;;4977727;28;20539;-63
2022/10/14 05:08:02;;;;;;;25.97;23.10;;;13.40;99.90;;;;;;4977579;28;20450;-64
2022/10/14 05:10:30;;;;;;;28.63;22.60;;;13.40;99.90;;;;;;4977522;28;20486;-64
2022/10/14 05:12:57;;;;;;;28.23;23.17;;;13.40;99.90;;;;;;4977587;28;20537;-62
2022/10/14 05:15:24;;;;;;;26.07;21.90;;;13.40;99.90;;;;;;4977118;28;20513;-62
2022/10/14 05:17:50;;;;;;;26.63;21.03;;;13.40;99.90;;;;;;4977568;28;20589;-62
2022/10/14 05:20:17;;;;;;;30.43;22.67;;;13.40;99.90;;;;;;4977904;28;20459;-62
2022/10/14 05:22:45;;;;;;;32.13;21.20;;;13.40;99.90;;;;;;4977181;28;20458;-62
2022/10/14 05:25:12;;;;;;;27.70;21.90;;;13.40;99.90;;;;;;4977379;28;20462;-62
2022/10/14 05:27:40;;;;;;;26.73;23.80;;;13.40;99.90;;;;;;4977296;28;20454;-62
2022/10/14 05:30:08;;;;;;;29.97;23.20;;;13.40;99.90;;;;;;4977043;28;20509;-63
2022/10/14 05:32:35;;;;;;;29.70;24.17;;;13.40;99.90;;;;;;4977043;28;20455;-62
2022/10/14 05:35:01;;;;;;;28.20;23.90;;;13.40;99.90;;;;;;4977172;28;20458;-62
2022/10/14 05:37:28;;;;;;;27.17;23.67;;;13.40;99.90;;;;;;4976975;28;20478;-62
2022/10/14 05:39:55;;;;;;;28.27;24.37;;;13.40;99.90;;;;;;4976998;28;20458;-62
2022/10/14 05:42:21;;;;;;;27.07;22.77;;;13.40;99.90;;;;;;4976903;28;20985;-63
2022/10/14 05:44:50;;;;;;;33.73;23.67;;;13.40;99.90;;;;;;4976547;28;20459;-63
2022/10/14 05:47:16;;;;;;;29.10;24.27;;;13.40;99.90;;;;;;4977095;28;20966;-65
2022/10/14 05:49:43;;;;;;;25.90;23.30;;;13.40;99.90;;;;;;4976878;28;20506;-65
2022/10/14 05:52:10;;;;;;;27.23;24.30;;;13.40;99.90;;;;;;4976825;28;20474;-65
2022/10/14 05:54:36;;;;;;;26.57;23.77;;;13.50;99.90;;;;;;4977229;28;20458;-65
2022/10/14 05:57:04;;;;;;;29.87;25.50;;;13.40;99.90;;;;;;4977008;28;20554;-64
2022/10/14 05:59:32;;;;;;;26.80;22.87;;;13.50;99.90;;;;;;4976827;28;20458;-65
2022/10/14 06:02:00;;;;;;;30.50;22.33;;;13.50;99.90;;;;;;4976584;28;20538;-65
2022/10/14 06:04:28;;;;;;;25.47;22.57;;;13.50;99.90;;;;;;4976395;28;20992;-65
2022/10/14 06:06:55;;;;;;;30.07;23.23;;;13.60;99.90;;;;;;4976606;28;20458;-64
2022/10/14 06:09:22;;;;;;;27.90;24.00;;;13.70;99.90;;;;;;4976510;28;20835;-64
2022/10/14 06:11:49;;;;;;;31.73;22.93;;;13.70;99.90;;;;;;4976354;28;20541;-64
2022/10/14 06:14:15;;;;;;;25.40;22.80;;;13.70;99.90;;;;;;4976617;28;20505;-64
2022/10/14 06:16:42;;;;;;;24.77;22.10;;;13.80;99.90;;;;;;4976315;28;20459;-65
2022/10/14 06:19:10;;;;;;;23.43;21.13;;;13.80;99.90;;;;;;4975920;28;21076;-64
2022/10/14 06:21:37;;;;;;;24.27;21.70;;;13.80;99.90;;;;;;4976358;28;20502;-64
2022/10/14 06:24:04;;;;;;;25.70;23.07;;;13.80;99.90;;;;;;4976267;28;20506;-64
2022/10/14 06:26:31;;;;;;;25.40;22.63;;;13.80;99.90;;;;;;4976446;28;20541;-65
2022/10/14 06:28:58;;;;;;;24.80;22.27;;;13.80;99.90;;;;;;4976203;28;20505;-63
2022/10/14 06:31:24;;;;;;;26.97;24.00;;;13.90;99.90;;;;;;4976309;28;20474;-62
2022/10/14 06:33:51;;;;;;;28.97;23.00;;;13.90;99.90;;;;;;4977758;28;20454;-63
2022/10/14 06:36:19;;;;;;;23.80;21.30;;;13.90;99.90;;;;;;4978729;28;20458;-63
2022/10/14 06:38:45;;;;;;;29.20;23.73;;;13.90;99.90;;;;;;4978488;28;20478;-64
2022/10/14 06:41:12;;;;;;;28.90;23.13;;;13.90;99.90;;;;;;4978564;28;20475;-64
2022/10/14 06:43:39;;;;;;;25.43;22.73;;;14.00;99.90;;;;;;4977931;28;20949;-64
2022/10/14 06:46:06;;;;;;;24.37;21.97;;;14.00;99.90;;;;;;4977343;28;20478;-64
2022/10/14 06:48:32;;;;;;;27.13;22.10;;;14.10;99.90;;;;;;4977307;28;20457;-62
2022/10/14 06:50:59;;;;;;;25.03;22.57;;;14.10;99.90;;;;;;4976718;28;20474;-63
2022/10/14 06:53:28;;;;;;;25.30;22.70;;;14.10;99.90;;;;;;4977039;28;20459;-62
2022/10/14 06:55:59;;;;;;;25.90;23.40;;;14.20;99.90;;;;;;4976483;28;20458;-64
2022/10/14 06:58:26;;;;;;;25.57;22.60;;;14.10;99.90;;;;;;4975742;28;20934;-63
2022/10/14 07:00:52;;;;;;;25.93;23.17;;;14.20;99.90;;;;;;4975320;28;20478;-63
2022/10/14 07:03:19;;;;;;;30.60;24.20;;;14.20;99.90;;;;;;4984131;28;20493;-62
2022/10/14 07:05:46;;;;;;;26.17;23.60;;;14.30;99.90;;;;;;4985924;28;20458;-64
2022/10/14 07:08:13;;;;;;;26.03;23.33;;;14.30;99.90;;;;;;4977988;28;20458;-63
2022/10/14 07:10:41;;;;;;;26.60;23.83;;;14.40;99.90;;;;;;4976038;28;20474;-62
2022/10/14 07:13:08;;;;;;;24.97;22.57;;;14.50;99.90;;;;;;4975467;28;20513;-64
2022/10/14 07:15:34;;;;;;;22.30;20.30;;;14.40;99.90;;;;;;4975498;28;20459;-62
2022/10/14 07:18:01;;;;;;;25.17;21.37;;;14.40;99.90;;;;;;4975472;28;20479;-64
2022/10/14 07:20:27;;;;;;;26.20;20.00;;;14.40;99.90;;;;;;4975187;28;20954;-63
2022/10/14 07:22:55;;;;;;;22.63;20.13;;;14.40;99.90;;;;;;4975765;28;20443;-63
2022/10/14 07:25:22;;;;;;;22.83;20.73;;;14.40;99.90;;;;;;4975444;28;20550;-63
2022/10/14 07:27:51;;;;;;;23.47;20.93;;;14.50;99.90;;;;;;4974938;28;20942;-63
2022/10/14 07:30:17;;;;;;;22.13;19.60;;;14.50;99.90;;;;;;4975283;28;20455;-63
2022/10/14 07:32:44;;;;;;;21.97;19.87;;;14.50;99.90;;;;;;4975341;28;20501;-64
2022/10/14 07:35:11;;;;;;;22.23;19.90;;;14.50;99.90;;;;;;4974734;28;20470;-64
2022/10/14 07:37:38;;;;;;;21.70;19.60;;;14.60;99.90;;;;;;4975221;28;20462;-64
2022/10/14 07:40:05;;;;;;;20.90;17.90;;;14.60;99.90;;;;;;4975079;28;20534;-63
2022/10/14 07:42:32;;;;;;;22.30;20.03;;;14.50;99.90;;;;;;4975091;28;20474;-63
2022/10/14 07:45:00;;;;;;;19.60;17.77;;;14.50;99.90;;;;;;4975202;28;20454;-62
2022/10/14 07:47:27;;;;;;;20.57;18.50;;;14.50;99.90;;;;;;4975102;28;20450;-62
2022/10/14 07:49:53;;;;;;;17.13;15.63;;;14.60;99.90;;;;;;4975283;28;20454;-63
2022/10/14 07:52:20;;;;;;;20.53;16.90;;;14.60;99.90;;;;;;4975080;28;20475;-62
2022/10/14 07:54:47;;;;;;;17.50;15.80;;;14.70;99.90;;;;;;4974966;28;20458;-62
2022/10/14 07:57:13;;;;;;;16.37;14.77;;;14.70;99.90;;;;;;4975044;28;20860;-63
2022/10/14 07:59:40;;;;;;;15.30;13.80;;;14.80;99.90;;;;;;4974980;28;20483;-64
2022/10/14 08:02:10;;;;;;;14.33;12.90;;;14.90;99.90;;;;;;4974549;28;20989;-63
2022/10/14 08:04:37;;;;;;;16.00;14.27;;;14.90;99.90;;;;;;4974820;28;20446;-63
2022/10/14 08:07:04;;;;;;;14.27;12.93;;;15.00;99.90;;;;;;4974806;28;20534;-62
2022/10/14 08:09:32;;;;;;;13.97;12.57;;;15.10;99.90;;;;;;4977251;28;20553;-64
2022/10/14 08:11:58;;;;;;;13.97;12.67;;;15.20;99.90;;;;;;4978906;28;20478;-64
2022/10/14 08:14:25;;;;;;;12.93;11.73;;;15.30;99.90;;;;;;4978605;28;20489;-64
2022/10/14 08:16:52;;;;;;;14.43;11.80;;;15.30;99.90;;;;;;4978274;28;20945;-64
2022/10/14 08:19:20;;;;;;;13.37;10.90;;;15.30;99.90;;;;;;4978517;28;20841;-63
2022/10/14 08:21:47;;;;;;;13.23;11.77;;;15.40;99.90;;;;;;4978555;28;20474;-63
2022/10/14 08:24:13;;;;;;;14.80;11.47;;;15.40;99.90;;;;;;4978259;28;20509;-64
2022/10/14 08:26:49;;;;;;;13.70;10.93;;;15.40;99.90;;;;;;4978414;28;20458;-63
2022/10/14 08:29:16;;;;;;;14.80;10.20;;;15.40;99.90;;;;;;4978462;28;20439;-63
2022/10/14 08:31:42;;;;;;;12.27;11.10;;;15.40;99.90;;;;;;4978068;28;20478;-63
2022/10/14 08:34:10;;;;;;;12.57;11.40;;;15.40;99.90;;;;;;4978329;28;20462;-64
2022/10/14 08:36:38;;;;;;;13.20;10.63;;;15.40;99.90;;;;;;4978271;28;20454;-63
2022/10/14 08:39:05;;;;;;;11.77;10.63;;;15.40;99.90;;;;;;4978291;28;20478;-63
2022/10/14 08:41:46;;;;;;;12.10;10.90;;;15.40;99.90;;;;;;4978042;28;20478;-63
2022/10/14 08:44:19;;;;;;;12.03;10.90;;;15.40;99.90;;;;;;4978108;28;20864;-63
2022/10/14 08:46:49;;;;;;;11.90;10.70;;;15.40;99.90;;;;;;4978098;28;20446;-63
2022/10/14 08:49:22;;;;;;;11.57;10.37;;;15.40;99.90;;;;;;4978128;28;20435;-63
2022/10/14 08:51:55;;;;;;;13.27;11.93;;;15.40;99.90;;;;;;4978012;28;20509;-63
2022/10/14 08:54:32;;;;;;;11.70;10.43;;;15.40;99.90;;;;;;4978109;28;20443;-63
2022/10/14 08:56:59;;;;;;;11.13;9.47;;;15.40;99.90;;;;;;4978067;28;20497;-63
2022/10/14 08:59:26;;;;;;;9.23;8.40;;;15.50;99.90;;;;;;4978003;28;20462;-63
2022/10/14 09:01:58;;;;;;;9.27;8.33;;;15.50;99.90;;;;;;4977427;28;20493;-63
2022/10/14 09:04:24;;;;;;;14.47;9.90;;;15.50;99.90;;;;;;4977705;28;20497;-63
2022/10/14 09:06:54;;;;;;;10.90;9.90;;;15.60;99.90;;;;;;4977544;28;20454;-63
2022/10/14 09:09:26;;;;;;;8.73;8.00;;;15.60;99.90;;;;;;4977519;28;20454;-63
2022/10/14 09:11:56;;;;;;;10.80;7.60;;;15.70;99.90;;;;;;4977451;28;20535;-61
2022/10/14 09:14:27;;;;;;;9.00;8.20;;;15.90;99.90;;;;;;4977295;28;20459;-62
2022/10/14 09:17:01;;;;;;;28.03;8.67;;;16.00;99.90;;;;;;4977890;28;20454;-64
2022/10/14 09:19:32;;;;;;;17.63;10.50;;;16.10;99.90;;;;;;4976746;28;20852;-62
2022/10/14 09:22:01;;;;;;;9.90;8.87;;;16.10;99.90;;;;;;4977300;28;20974;-64
2022/10/14 09:24:31;;;;;;;8.90;8.13;;;16.20;99.90;;;;;;4977338;28;20820;-63
2022/10/14 09:27:04;;;;;;;13.53;8.27;;;16.30;99.90;;;;;;4977432;28;20507;-63
2022/10/14 09:29:33;;;;;;;11.00;9.30;;;16.40;99.90;;;;;;4977392;28;20442;-63
2022/10/14 09:32:04;;;;;;;10.20;8.00;;;16.50;99.90;;;;;;4977296;28;20470;-64
2022/10/14 09:34:34;;;;;;;12.97;8.00;;;16.60;99.90;;;;;;4977079;28;20474;-63
2022/10/14 09:37:20;;;;;;;9.03;7.80;;;16.60;99.90;;;;;;4977156;28;20442;-63
2022/10/14 09:39:48;;;;;;;10.60;8.37;;;16.60;99.90;;;;;;4977212;28;20820;-63
2022/10/14 09:42:18;;;;;;;8.70;7.80;;;16.70;99.90;;;;;;4978122;28;20542;-62
2022/10/14 09:45:02;;;;;;;9.30;8.40;;;16.70;99.90;;;;;;4976846;28;20458;-63
2022/10/14 09:47:29;;;;;;;9.87;8.80;;;16.70;99.90;;;;;;4977220;28;20455;-63
2022/10/14 09:49:59;;;;;;;11.87;8.80;;;16.70;99.90;;;;;;4976995;28;20481;-63
2022/10/14 09:52:29;;;;;;;12.20;8.67;;;16.80;99.90;;;;;;4977429;28;20853;-63
2022/10/14 09:54:58;;;;;;;11.20;8.90;;;16.80;99.90;;;;;;4976480;28;20929;-63
2022/10/14 09:57:25;;;;;;;12.67;8.90;;;16.90;99.90;;;;;;4976752;28;20454;-62
2022/10/14 09:59:56;;;;;;;22.33;9.03;;;17.00;99.90;;;;;;4984772;28;20478;-62
2022/10/14 10:02:32;;;;;;;9.37;8.17;;;17.00;99.90;;;;;;4986443;28;20935;-63
2022/10/14 10:05:11;;;;;;;13.97;9.80;;;17.10;99.90;;;;;;4977131;28;20449;-62
2022/10/14 10:07:39;;;;;;;11.20;9.13;;;17.20;99.90;;;;;;4976322;28;20792;-63
2022/10/14 10:10:19;;;;;;;9.70;8.80;;;17.30;99.90;;;;;;4976370;28;20965;-64
2022/10/14 10:12:46;;;;;;;9.10;8.20;;;17.30;99.90;;;;;;4976459;28;20442;-63
2022/10/14 10:15:18;;;;;;;9.47;8.67;;;17.40;99.90;;;;;;4976611;28;20502;-63
2022/10/14 10:17:46;;;;;;;11.63;7.90;;;17.40;99.90;;;;;;4976262;28;20446;-63
2022/10/14 10:20:27;;;;;;;11.23;8.67;;;17.40;99.90;;;;;;4975736;28;21016;-64
2022/10/14 10:22:55;;;;;;;14.07;9.50;;;17.50;99.90;;;;;;4976236;28;20442;-62
2022/10/14 10:25:28;;;;;;;14.60;8.93;;;17.70;99.90;;;;;;4976536;28;20458;-64
2022/10/14 10:27:58;;;;;;;9.87;8.90;;;17.80;99.90;;;;;;4976060;28;20452;-63
2022/10/14 10:30:28;;;;;;;8.90;8.20;;;17.80;99.90;;;;;;4976103;28;20435;-64
2022/10/14 10:33:09;;;;;;;11.07;8.50;;;17.90;99.90;;;;;;4976015;28;20513;-64
2022/10/14 10:35:57;;;;;;;8.50;7.73;;;18.00;99.90;;;;;;4976306;28;20447;-63
2022/10/14 10:38:30;;;;;;;9.03;8.27;;;18.10;99.90;;;;;;4975899;28;20543;-64
2022/10/14 10:41:11;;;;;;;12.97;8.50;;;18.20;99.90;;;;;;4975527;28;20479;-63
2022/10/14 10:44:03;;;;;;;9.10;8.20;;;18.10;99.90;;;;;;4976494;28;20847;-63
2022/10/14 10:46:50;;;;;;;7.70;7.00;;;18.20;99.90;;;;;;4975721;28;20439;-63
2022/10/14 10:49:27;;;;;;;8.30;7.50;;;18.20;99.90;;;;;;4976583;28;20443;-64
2022/10/14 10:51:57;;;;;;;7.73;6.80;;;18.30;99.90;;;;;;4975798;28;20478;-63
2022/10/14 10:54:36;;;;;;;8.23;7.53;;;18.50;99.90;;;;;;4975629;28;20498;-63
2022/10/14 10:57:10;;;;;;;8.50;7.60;;;18.70;99.90;;;;;;4975549;28;20443;-63
2022/10/14 10:59:48;;;;;;;7.90;7.00;;;19.00;99.90;;;;;;4975450;28;21073;-64
2022/10/14 11:02:54;;;;;;;11.70;6.53;;;19.10;99.90;;;;;;4975464;28;20537;-63
2022/10/14 11:05:40;;;;;;;7.73;6.70;;;19.20;99.90;;;;;;4975440;28;20449;-63
2022/10/14 11:14:11;;;;;;;6.97;6.30;;;19.30;99.90;;;;;;4975304;28;20779;-63
2022/10/14 11:16:45;;;;;;;9.17;7.90;;;19.40;99.90;;;;;;4975634;28;20493;-63
2022/10/14 11:19:16;;;;;;;11.00;6.63;;;19.40;99.90;;;;;;4975131;28;20842;-63
2022/10/14 11:21:46;;;;;;;7.83;6.57;;;19.30;99.90;;;;;;4975013;28;20478;-63
2022/10/14 11:24:20;;;;;;;9.27;6.10;;;19.10;99.90;;;;;;4975081;28;20509;-64
2022/10/14 11:26:59;;;;;;;9.27;7.00;;;19.00;99.90;;;;;;4975058;28;20485;-63
2022/10/14 11:29:53;;;;;;;7.30;6.60;;;18.80;99.90;;;;;;4974803;28;20790;-66
2022/10/14 11:32:24;;;;;;;8.63;6.80;;;18.70;99.90;;;;;;4975053;28;20573;-64
2022/10/14 11:35:06;;;;;;;12.43;7.87;;;18.60;99.90;;;;;;4975026;28;20451;-64
2022/10/14 11:37:45;;;;;;;8.87;6.67;;;18.50;99.90;;;;;;4975012;28;20447;-64
2022/10/14 11:40:21;;;;;;;6.30;4.17;;;18.20;99.90;;;;;;4974922;28;20466;-65
2022/10/14 11:43:05;;;;;;;5.07;4.67;;;17.90;99.90;;;;;;4975890;28;20442;-65
2022/10/14 11:45:47;;;;;;;7.63;5.60;;;17.70;99.90;;;;;;4981360;28;20443;-65
2022/10/14 11:48:27;;;;;;;5.67;4.90;;;17.40;99.90;;;;;;4981236;28;20450;-64
2022/10/14 11:50:59;;;;;;;7.63;5.47;;;17.40;99.90;;;;;;4981381;28;20474;-65
2022/10/14 11:53:39;;;;;;;7.17;5.00;;;17.40;99.90;;;;;;4981402;28;20439;-64
2022/10/14 11:56:14;;;;;;;7.60;5.33;;;17.30;99.90;;;;;;4981307;28;20563;-65
2022/10/14 11:58:46;;;;;;;5.53;5.07;;;17.30;99.90;;;;;;4981353;28;20489;-64
2022/10/14 12:01:21;;;;;;;5.73;4.10;;;17.40;99.90;;;;;;4981079;28;20898;-64
2022/10/14 12:03:57;;;;;;;5.40;5.00;;;17.40;99.90;;;;;;4981357;28;20902;-64
2022/10/14 12:06:30;;;;;;;5.20;4.80;;;17.40;99.90;;;;;;4981301;28;20434;-64
2022/10/14 12:09:01;;;;;;;6.30;4.57;;;17.50;99.90;;;;;;4980981;28;20941;-65
2022/10/14 12:11:32;;;;;;;4.70;4.30;;;17.60;99.90;;;;;;4980717;28;20478;-64
2022/10/14 12:14:07;;;;;;;6.03;5.03;;;17.70;99.90;;;;;;4981193;28;20447;-65
2022/10/14 12:16:33;;;;;;;5.70;5.20;;;17.80;99.90;;;;;;4981184;28;20512;-64
2022/10/14 12:19:00;;;;;;;6.53;5.03;;;17.90;99.90;;;;;;4981113;28;20459;-65
2022/10/14 12:21:33;;;;;;;7.13;4.90;;;18.00;99.90;;;;;;4981204;28;20474;-65
2022/10/14 12:24:05;;;;;;;6.70;6.07;;;18.10;99.90;;;;;;4981194;28;20525;-65
2022/10/14 12:26:51;;;;;;;5.33;4.93;;;18.20;99.90;;;;;;4981392;28;20472;-65
2022/10/14 12:29:22;;;;;;;6.20;4.87;;;18.30;99.90;;;;;;4981114;28;20434;-66
2022/10/14 12:31:51;;;;;;;5.60;4.90;;;18.30;99.90;;;;;;4980989;28;20482;-65
2022/10/14 12:34:33;;;;;;;5.17;4.67;;;18.40;99.90;;;;;;4980979;28;20462;-65
2022/10/14 12:37:08;;;;;;;8.63;5.40;;;18.40;99.90;;;;;;4981116;28;20478;-65
2022/10/14 12:39:42;;;;;;;5.97;5.40;;;18.40;99.90;;;;;;4981028;28;20465;-65
2022/10/14 12:42:13;;;;;;;5.53;4.93;;;18.50;99.90;;;;;;4980863;28;20477;-65
2022/10/14 12:44:46;;;;;;;5.23;4.83;;;18.50;99.90;;;;;;4980961;28;20459;-65
2022/10/14 12:47:19;;;;;;;5.40;4.13;;;18.50;99.90;;;;;;4981019;28;20537;-65
2022/10/14 12:49:49;;;;;;;5.23;4.20;;;18.70;99.90;;;;;;4980648;28;20439;-65
2022/10/14 12:52:23;;;;;;;5.43;4.30;;;18.90;99.90;;;;;;4981499;28;20470;-65
2022/10/14 12:54:51;;;;;;;4.50;4.10;;;19.10;99.90;;;;;;4983398;28;20522;-65
2022/10/14 12:57:26;;;;;;;3.43;3.17;;;19.30;99.90;;;;;;4985836;28;20459;-65
2022/10/14 12:59:56;;;;;;;4.17;3.77;;;19.40;99.90;;;;;;4981197;28;21040;-65
2022/10/14 13:02:31;;;;;;;4.00;3.70;;;19.50;99.90;;;;;;4977416;28;20488;-65
2022/10/14 13:05:01;;;;;;;3.50;3.20;;;19.50;99.90;;;;;;4977798;28;20438;-65
2022/10/14 13:07:31;;;;;;;5.73;4.23;;;19.60;99.90;;;;;;4977227;28;20973;-65
2022/10/14 13:09:59;;;;;;;3.77;3.47;;;19.60;99.90;;;;;;4977506;28;20494;-65
2022/10/14 13:12:41;;;;;;;4.47;4.07;;;19.70;99.90;;;;;;4977301;28;20474;-65
2022/10/14 13:15:48;;;;;;;3.87;3.57;;;19.70;99.90;;;;;;4977459;28;20435;-65
2022/10/14 13:18:47;;;;;;;3.40;3.20;;;19.70;99.90;;;;;;4957342;28;20840;-65
2022/10/14 13:21:40;;;;;;;3.20;2.90;;;19.80;99.90;;;;;;4977335;28;20494;-65
2022/10/14 13:24:13;;;;;;;5.50;3.40;;;19.70;99.90;;;;;;4968845;28;20459;-64
2022/10/14 13:26:50;;;;;;;2.77;2.57;;;19.70;99.90;;;;;;4977108;28;20911;-66
2022/10/14 13:29:25;;;;;;;2.53;2.43;;;19.70;99.90;;;;;;4977736;28;20442;-65
2022/10/14 13:32:01;;;;;;;3.27;3.07;;;19.60;99.90;;;;;;4976821;28;21000;-65
2022/10/14 13:34:41;;;;;;;4.77;2.40;;;19.50;99.90;;;;;;4977884;28;20497;-65
2022/10/14 13:37:28;;;;;;;3.33;3.10;;;19.50;99.90;;;;;;4978098;28;20443;-64
2022/10/14 13:39:56;;;;;;;2.93;2.57;;;19.40;99.90;;;;;;4977723;28;20815;-64
2022/10/14 13:42:26;;;;;;;4.00;2.93;;;19.40;99.90;;;;;;4978831;28;20563;-65
2022/10/14 13:44:54;;;;;;;3.53;3.27;;;19.40;99.90;;;;;;4976896;28;20866;-65
2022/10/14 13:47:23;;;;;;;2.53;2.33;;;19.40;99.90;;;;;;4976764;28;20454;-65
2022/10/14 13:49:51;;;;;;;2.60;1.90;;;19.50;99.90;;;;;;4977030;28;20463;-66
2022/10/14 13:52:23;;;;;;;3.43;2.37;;;19.50;99.90;;;;;;4976719;28;20533;-65
2022/10/14 13:55:04;;;;;;;2.30;2.20;;;19.60;99.90;;;;;;4976987;28;20533;-65
2022/10/14 13:57:31;;;;;;;2.10;1.73;;;19.60;99.90;;;;;;4976659;28;20439;-65
2022/10/14 13:59:57;;;;;;;1.93;1.80;;;19.60;99.90;;;;;;4976698;28;20478;-65
2022/10/14 14:02:27;;;;;;;1.53;1.43;;;19.60;99.90;;;;;;4976362;28;20490;-65
2022/10/14 14:04:55;;;;;;;1.90;1.80;;;19.60;99.90;;;;;;4976847;28;20461;-66
2022/10/14 14:07:25;;;;;;;3.50;2.33;;;19.60;99.90;;;;;;4976293;28;20454;-65
2022/10/14 14:09:56;;;;;;;1.60;1.50;;;19.60;99.90;;;;;;4977029;28;20454;-64
2022/10/14 14:12:23;;;;;;;1.63;1.53;;;19.60;99.90;;;;;;4976976;28;20549;-65
2022/10/14 14:14:51;;;;;;;2.60;1.77;;;19.50;99.90;;;;;;4977587;28;20513;-64
2022/10/14 14:17:20;;;;;;;1.57;1.47;;;19.50;99.90;;;;;;4977691;28;20455;-65
2022/10/14 14:19:49;;;;;;;1.63;1.53;;;19.50;99.90;;;;;;4977902;28;20505;-64
2022/10/14 14:22:18;;;;;;;1.93;1.60;;;19.40;99.90;;;;;;4978735;28;20471;-64
2022/10/14 14:24:45;;;;;;;1.70;1.60;;;19.40;99.90;;;;;;4976765;28;20451;-65
2022/10/14 14:27:14;;;;;;;2.67;1.50;;;19.40;99.90;;;;;;4976304;28;20822;-65
2022/10/14 14:29:43;;;;;;;1.40;1.40;;;19.30;99.90;;;;;;4976802;28;20459;-65
2022/10/14 14:32:15;;;;;;;2.47;1.97;;;19.10;99.90;;;;;;4977690;28;20617;-65
2022/10/14 14:34:45;;;;;;;2.53;1.60;;;19.00;99.90;;;;;;4976392;28;20450;-65
2022/10/14 14:37:25;;;;;;;1.53;1.40;;;18.80;99.90;;;;;;4975892;28;20942;-64
2022/10/14 14:40:00;;;;;;;1.43;1.33;;;18.60;99.90;;;;;;4976305;28;20506;-64
2022/10/14 14:42:28;;;;;;;6.33;1.53;;;18.40;99.90;;;;;;4976086;28;20890;-65
2022/10/14 14:44:59;;;;;;;2.40;2.20;;;18.20;99.90;;;;;;4976198;28;20468;-65
2022/10/14 14:47:27;;;;;;;3.37;1.57;;;18.10;99.90;;;;;;4975785;28;20498;-65
2022/10/14 14:49:55;;;;;;;1.80;1.70;;;18.00;99.90;;;;;;4976053;28;20455;-65
2022/10/14 14:52:24;;;;;;;1.33;1.33;;;17.90;99.90;;;;;;4980579;28;20525;-64
2022/10/14 14:54:51;;;;;;;1.50;1.40;;;18.00;99.90;;;;;;4980416;28;20463;-65
2022/10/14 14:57:20;;;;;;;1.30;1.30;;;17.90;99.90;;;;;;4980179;28;20458;-65
2022/10/14 14:59:57;;;;;;;2.50;2.40;;;17.90;99.90;;;;;;4981420;28;20462;-65
2022/10/14 15:02:25;;;;;;;2.00;1.90;;;18.00;99.90;;;;;;4978421;28;20478;-66
2022/10/14 15:05:01;;;;;;;1.87;1.77;;;18.00;99.90;;;;;;4975569;28;20490;-65
2022/10/14 15:07:29;;;;;;;2.23;2.10;;;18.00;99.90;;;;;;4975578;28;20529;-66
2022/10/14 15:09:58;;;;;;;1.73;1.63;;;18.00;99.90;;;;;;4975539;28;20863;-65
2022/10/14 15:12:29;;;;;;;2.30;2.10;;;18.00;99.90;;;;;;4975499;28;20482;-65
2022/10/14 15:14:58;;;;;;;4.30;1.90;;;18.00;99.90;;;;;;4975631;28;20447;-66
2022/10/14 15:17:28;;;;;;;2.00;1.60;;;18.00;99.90;;;;;;4974724;28;20946;-65
2022/10/14 15:19:55;;;;;;;1.77;1.67;;;18.00;99.90;;;;;;4974668;28;20443;-65
2022/10/14 15:22:32;;;;;;;2.20;2.03;;;18.00;99.90;;;;;;4975305;28;20501;-65
2022/10/14 15:25:06;;;;;;;2.33;2.00;;;18.00;99.90;;;;;;4975334;28;20477;-65
2022/10/14 15:27:48;;;;;;;2.00;1.90;;;18.00;99.90;;;;;;4975319;28;20443;-65
2022/10/14 15:30:33;;;;;;;2.27;1.70;;;18.00;99.90;;;;;;4974963;28;20985;-65
2022/10/14 15:33:02;;;;;;;2.40;2.20;;;18.00;99.90;;;;;;4975194;28;20443;-65
2022/10/14 15:35:29;;;;;;;2.20;1.87;;;18.00;99.90;;;;;;4975152;28;20997;-65
2022/10/14 15:37:58;;;;;;;3.67;2.33;;;18.00;99.90;;;;;;4975250;28;20455;-65
2022/10/14 15:40:28;;;;;;;2.50;2.40;;;18.00;99.90;;;;;;4975038;28;20881;-66
2022/10/14 15:42:55;;;;;;;2.50;2.30;;;18.00;99.90;;;;;;4975285;28;20439;-65
2022/10/14 15:45:23;;;;;;;3.70;3.30;;;17.90;99.90;;;;;;4975167;28;20541;-65
2022/10/14 15:47:54;;;;;;;3.13;1.97;;;17.90;99.90;;;;;;4976181;28;20462;-65
2022/10/14 15:50:23;;;;;;;2.37;2.17;;;17.90;99.90;;;;;;4975273;28;20439;-65
2022/10/14 15:52:52;;;;;;;4.00;2.63;;;17.90;99.90;;;;;;4975210;28;20535;-65
2022/10/14 15:55:22;;;;;;;2.10;1.83;;;17.90;99.90;;;;;;4975834;28;20465;-65
2022/10/14 15:57:50;;;;;;;2.50;1.70;;;17.80;99.90;;;;;;4975018;28;20449;-65
2022/10/14 16:00:18;;;;;;;2.50;2.40;;;17.80;99.90;;;;;;4978522;28;20463;-64
2022/10/14 16:02:46;;;;;;;1.93;1.83;;;17.70;99.90;;;;;;4979925;28;20474;-66
2022/10/14 16:05:13;;;;;;;2.63;1.80;;;17.60;99.90;;;;;;4978170;28;20451;-65
2022/10/14 16:07:41;;;;;;;2.07;1.77;;;17.60;99.90;;;;;;4975219;28;20454;-65
2022/10/14 16:10:09;;;;;;;1.67;1.67;;;17.60;99.90;;;;;;4974949;28;20455;-64
2022/10/14 16:12:37;;;;;;;2.43;1.63;;;17.50;99.90;;;;;;4975373;28;20474;-64
2022/10/14 16:15:11;;;;;;;2.20;1.93;;;17.50;99.90;;;;;;4975047;28;20796;-64
2022/10/14 16:17:38;;;;;;;2.47;2.27;;;17.40;99.90;;;;;;4975042;28;20435;-65
2022/10/14 16:20:05;;;;;;;2.33;1.63;;;17.40;99.90;;;;;;4974939;28;20458;-65
2022/10/14 16:22:32;;;;;;;2.00;1.90;;;17.40;99.90;;;;;;4974698;28;20886;-65
2022/10/14 16:24:58;;;;;;;1.90;1.80;;;17.40;99.90;;;;;;4975033;28;20454;-65
2022/10/14 16:27:25;;;;;;;2.00;1.80;;;17.30;99.90;;;;;;4974950;28;20505;-65
2022/10/14 16:29:53;;;;;;;2.20;2.10;;;17.30;99.90;;;;;;4976630;28;20454;-65
2022/10/14 16:32:20;;;;;;;2.50;2.30;;;17.30;99.90;;;;;;4978794;28;20474;-65
2022/10/14 16:34:46;;;;;;;2.20;2.00;;;17.30;99.90;;;;;;4978444;28;20740;-64
2022/10/14 16:37:13;;;;;;;2.47;2.30;;;17.30;99.90;;;;;;4978298;28;20509;-64
2022/10/14 16:39:40;;;;;;;3.77;2.60;;;17.20;99.90;;;;;;4978217;28;20495;-66
2022/10/14 16:42:06;;;;;;;2.40;2.27;;;17.20;99.90;;;;;;4978053;28;20557;-65
2022/10/14 16:44:33;;;;;;;2.37;2.17;;;17.10;99.90;;;;;;4977951;28;20993;-66
2022/10/14 16:47:17;;;;;;;1.87;1.77;;;17.10;99.90;;;;;;4978050;28;20972;-64
2022/10/14 16:49:45;;;;;;;2.40;1.83;;;17.00;99.90;;;;;;4978816;28;20447;-66
2022/10/14 16:52:12;;;;;;;2.27;2.07;;;17.00;99.90;;;;;;4979240;28;20897;-64
2022/10/14 16:54:38;;;;;;;2.30;2.20;;;16.90;99.90;;;;;;4978463;28;20459;-66
2022/10/14 16:57:06;;;;;;;2.00;1.90;;;16.90;99.90;;;;;;4977565;28;20493;-65
2022/10/14 16:59:33;;;;;;;2.50;2.30;;;16.90;99.90;;;;;;4977965;28;20458;-64
2022/10/14 17:02:01;;;;;;;2.30;2.20;;;16.90;99.90;;;;;;4977350;28;21048;-64